aviador You're here:

KMHE Decoded Metar

MITCHELL in SD, USA
Report Time2018-02-22 13:53:00
UTC Time2018-02-22 14:49:31
Flight Rules vfr VFR
Wind140° at 08 kt
W.Decomp.*RWY 12: 7.8 kt HW 1.8 kt RCW
RWY 17: 6.4 kt HW 4.8 kt LCW
W.Rank140° ranks 5
Current wind is below 140° avg. (9.5)
Visibility9999 m
Phenomena:N/A
Clouds:Overcast 037 Hf
Expected CloudBase > 1,200 ft AGL from Temp-Dew spread
Ceiling3,700 ft
Temp-8°C (ISA -20)
Dew Point-11°C (79% RH)
AAT-14.0°C
QNH1030 hPa
Density Alt-1,768 ft
Elevation1,302 ft
Report Wrong Elevation
Raw Report
METAR KMHE 221353Z AUTO 14008KT 10SM OVC037 M08/M11 A3043 RMK AO2 SLP330
T10781106=

Extra information for KMHE:More info

Metar Taf Metar & Taf Last 4 Metars F.Rules Stats Wind Profile Meteogram Temp Stats Airport Information Weather charts Add Link Nearby VenuesMetar ALERT Operation Metar Decoded Social comments

AIRNAV info for KMHE